メインページ
METAR-TAF:

METAR-TAF

空港 :

台北, 台湾

台湾桃園国際空港

緯度: 25-05N, 経度: 121-13E, 海抜: 33m

現時点の気象観測

当レポートは33分前の20:30(UTC)に作成
変向風 2kt
気温 18°C
湿度 94%
気圧 1019 hPa
視程: 7000m
高度1500ftの雲はほとんどない

METAR: RCTP 292030Z VRB02KT 7000 FEW015 18/17 Q1019 NOSIG RMK A3010

時間: 05:03 (21:03 UTC)

予報

当レポートは4時間3分前の17:00(UTC)に作成
予報は29日の 18時(UTC)から 30日の 24時(UTC)まで有効
東/北東の風 8kt
視程: 6000m
高度1200ftの雲はほとんどない
高度3000ftの千切れ雲あり
29日の 19時(UTC)から 29日の 21時(UTC)まで徐々に
視程: 4000m
高度600ftの雲は散在している
高度1200ftの千切れ雲あり
高度2500ftの千切れ雲あり
29日の 21時(UTC)から 30日の 01時(UTC)まで一時的に
視程: 2000m
高度400ftの雲は散在している
高度800ftの千切れ雲あり
高度2000ftの千切れ雲あり
30日の 01時(UTC)から 30日の 03時(UTC)まで徐々に
視程: 8000m
高度1500ftの雲はほとんどない
高度3200ftの千切れ雲あり
30日の 13時(UTC)から 30日の 15時(UTC)まで徐々に
南西の風 5kt
視程: 4000m
高度800ftの雲はほとんどない
高度1200ftの千切れ雲あり
30日の 16時(UTC)から 30日の 22時(UTC)まで一時的に
視程: 2000m
高度400ftの雲は散在している
高度600ftの千切れ雲あり
高度1000ftの千切れ雲あり

TAF: RCTP 291700Z 2918/3024 06008KT 6000 FEW012 BKN030 BECMG 2919/2921 4000 BR SCT006 BKN012 BKN025 TEMPO 2921/3001 2000 BR SCT004 BKN008 BKN020 BECMG 3001/3003 8000 FEW015 BKN032 BECMG 3013/3015 23005KT 4000 BR FEW008 BKN012 TEMPO 3016/3022 2000 BR SCT004 BKN006 BKN010

4,000以上の空港の気象観測と天気予報(METAR報とTAF報)

利用可能な観測所は地図上に黄色い丸と赤い丸で示す。

丸の上にカーソルを重ねると観測所名を参照できる。

次にクリックすると気象観測と天気予報を参照できる。

マップの切り替え:黒色「×」印の緑ボタンをクリックして拡大、「-」印の緑ボタンをクリックして縮小、緑色の三角印をクリックして隣りの地図に切り替え


METAR-TAF: